FW3063 Weather Reports


Display with metric or nautical units.
time (UTC)temp
F
wind
direction
speed
MPH
gust
MPH
rain 1hr
in
rain 24hr
in
rain mn
in
humidity
%
barometer
mb
20220929055025 47 121 1.0 2.0 0.00 0.00 0.00 68 1029.7
20220929054101 47 122 1.0 2.0 0.00 0.00 0.00 67 1029.8
20220929053037 48 124 2.0 2.0 0.00 0.00 0.00 67 1029.7
20220929052016 48 113 0.0 2.0 0.00 0.00 0.00 66 1029.8
20220929051022 48 120 1.0 2.0 0.00 0.00 0.00 66 1029.7
20220929050028 48 104 1.0 2.0 0.00 0.00 0.00 65 1029.7
20220929045134 49 122 1.0 2.0 0.00 0.00 0.00 63 1029.9
20220929044110 49 103 1.0 2.0 0.00 0.00 0.00 63 1029.9
20220929043119 49 333 1.0 5.0 0.00 0.00 0.00 63 1029.8
20220929042055 49 134 0.0 2.0 0.00 0.00 0.00 63 1030.0
20220929041101 49 124 0.0 2.0 0.00 0.00 0.00 64 1030.0
20220929040037 49 124 0.0 2.0 0.00 0.00 0.00 64 1030.1
20220929035016 49 0.0 0.0 0.00 0.00 0.00 64 1029.9
20220929034052 50 0.0 0.0 0.00 0.00 0.00 65 1029.9
20220929033128 50 0.0 0.0 0.00 0.00 0.00 65 1029.6
20220929032134 50 0.0 0.0 0.00 0.00 0.00 65 1029.7
20220929031040 50 0.0 0.0 0.00 0.00 0.00 65 1029.7
20220929030019 50 0.0 0.0 0.00 0.00 0.00 67 1029.7
20220929025055 50 0.0 0.0 0.00 0.00 0.00 68 1029.7
20220929024101 50 0.0 0.0 0.00 0.00 0.00 67 1029.8
20220929023037 50 0.0 0.0 0.00 0.00 0.00 65 1029.6
20220929022016 50 0.0 0.0 0.00 0.00 0.00 64 1029.6
20220929021022 51 0.0 0.0 0.00 0.00 0.00 63 1029.5
20220929020028 51 117 0.0 2.0 0.00 0.00 0.00 62 1029.5
20220929015033 51 0.0 0.0 0.00 0.00 0.00 62 1029.5
20220929014040 52 0.0 0.0 0.00 0.00 0.00 60 1029.5
20220929013049 52 117 0.0 2.0 0.00 0.00 0.00 59 1029.5
20220929012024 52 113 0.0 2.0 0.00 0.00 0.00 58 1029.5
20220929011101 53 0.0 0.0 0.00 0.00 0.00 58 1029.9
20220929010036 53 98 0.0 2.0 0.00 0.00 0.00 57 1029.5
20220929005016 54 119 1.0 2.0 0.00 0.00 0.00 57 1029.8
20220929004021 54 102 0.0 2.0 0.00 0.00 0.00 56 1029.7
20220929002034 55 0.0 0.0 0.00 0.00 0.00 52 1029.8
20220929001040 56 119 0.0 2.0 0.00 0.00 0.00 50 1029.9
20220929000048 56 0.0 0.0 0.00 0.00 0.00 49 1029.6
20220928235025 57 108 0.0 2.0 0.00 0.00 0.00 48 1029.8
20220928234030 58 91 0.0 2.0 0.00 0.00 0.00 45 1029.9
20220928233037 59 115 0.0 2.0 0.00 0.00 0.00 43 1030.0
20220928231022 60 107 1.0 2.0 0.00 0.00 0.00 40 1030.2
20220928230028 60 93 2.0 5.0 0.00 0.00 0.00 39 1030.0
20220928225034 61 118 1.0 2.0 0.00 0.00 0.00 39 1030.0
20220928224109 61 103 1.0 2.0 0.00 0.00 0.00 40 1030.1
20220928223018 61 116 2.0 5.0 0.00 0.00 0.00 37 1030.3
20220928222025 61 57 2.0 5.0 0.00 0.00 0.00 36 1030.4
20220928221030 62 72 1.0 2.0 0.00 0.00 0.00 37 1030.5
20220928220036 62 134 0.0 2.0 0.00 0.00 0.00 36 1030.4
20220928215016 62 96 0.0 2.0 0.00 0.00 0.00 35 1030.6
20220928214051 63 53 3.0 5.0 0.00 0.00 0.00 37 1030.8
20220928213057 63 162 1.0 2.0 0.00 0.00 0.00 34 1030.6
20220928212033 62 81 0.0 2.0 0.00 0.00 0.00 33 1030.7
20220928211109 62 0.0 0.0 0.00 0.00 0.00 35 1031.0
20220928210118 63 87 2.0 5.0 0.00 0.00 0.00 38 1030.8
20220928205024 63 183 1.0 2.0 0.00 0.00 0.00 34 1031.1
20220928204031 62 130 0.0 2.0 0.00 0.00 0.00 34 1031.1
20220928203037 62 229 2.0 5.0 0.00 0.00 0.00 33 1031.1
20220928202016 62 81 1.0 2.0 0.00 0.00 0.00 37 1031.2
20220928201051 62 117 1.0 2.0 0.00 0.00 0.00 36 1031.3
20220928200028 62 87 2.0 5.0 0.00 0.00 0.00 35 1031.1
20220928195033 61 258 3.0 8.0 0.00 0.00 0.00 35 1031.1
20220928194040 61 114 1.0 2.0 0.00 0.00 0.00 37 1031.7
20220928193018 60 111 3.0 5.0 0.00 0.00 0.00 39 1031.7
20220928192124 60 51 2.0 5.0 0.00 0.00 0.00 38 1031.7
20220928191100 60 120 1.0 5.0 0.00 0.00 0.00 40 1032.1
20220928190207 60 80 3.0 5.0 0.00 0.00 0.00 41 1032.2
20220928185046 59 112 1.0 2.0 0.00 0.00 0.00 40 1032.3
20220928142842 45 185 0.0 2.0 0.00 0.00 0.00 97 1032.8
20220928141821 44 0.0 0.0 0.00 0.00 0.00 97 1032.8
20220928140827 43 0.0 0.0 0.00 0.00 0.00 97 1032.6
20220928135833 42 0.0 0.0 0.00 0.00 0.00 98 1032.4
20220928134839 42 0.0 0.0 0.00 0.00 0.00 98 1032.4
20220928133844 41 0.0 0.0 0.00 0.00 0.00 99 1032.0
20220928132853 41 108 0.0 2.0 0.00 0.00 0.00 99 1032.2
20220928131830 41 0.0 0.0 0.00 0.00 0.00 99 1032.1
20220928130835 40 0.0 0.0 0.00 0.00 0.00 99 1032.0
20220928125842 39 0.0 0.0 0.00 0.00 0.00 99 1032.1
20220928124820 39 138 0.0 2.0 0.00 0.00 0.00 99 1032.2
20220928123827 39 0.0 0.0 0.00 0.00 0.00 99 1032.1
20220928123033 38 0.0 0.0 0.00 0.00 0.00 99 1032.2
20220928121938 38 89 0.0 2.0 0.00 0.00 0.00 99 1031.9
20220928120944 37 0.0 0.0 0.00 0.00 0.00 99 1031.8
20220928115823 37 0.0 0.0 0.00 0.00 0.00 99 1031.9
20220928114830 37 0.0 0.0 0.00 0.00 0.00 97 1031.8
20220928113835 37 0.0 0.0 0.00 0.00 0.00 97 1031.7
20220928112911 37 0.0 0.0 0.00 0.00 0.00 97 1031.5
20220928111820 37 0.0 0.0 0.00 0.00 0.00 97 1031.2
20220928110857 37 0.0 0.0 0.00 0.00 0.00 97 1031.3
20220928105832 37 0.0 0.0 0.00 0.00 0.00 97 1030.9
20220928104909 37 0.0 0.0 0.00 0.00 0.00 97 1031.0
20220928103914 36 0.0 0.0 0.00 0.00 0.00 97 1030.9
20220928102853 37 0.0 0.0 0.00 0.00 0.00 97 1030.9
20220928101830 37 0.0 0.0 0.00 0.00 0.00 97 1030.8
20220928100836 37 0.0 0.0 0.00 0.00 0.00 97 1030.9
20220928095841 37 0.0 0.0 0.00 0.00 0.00 98 1031.0
20220928094850 37 0.0 0.0 0.00 0.00 0.00 97 1030.5
20220928093927 37 0.0 0.0 0.00 0.00 0.00 97 1030.6
20220928092832 37 0.0 0.0 0.00 0.00 0.00 99 1030.5
20220928091838 37 0.0 0.0 0.00 0.00 0.00 99 1030.3
20220928090844 37 0.0 0.0 0.00 0.00 0.00 97 1030.3
20220928085823 37 0.0 0.0 0.00 0.00 0.00 97 1030.3
20220928084830 37 0.0 0.0 0.00 0.00 0.00 97 1030.3
20220928083905 37 0.0 0.0 0.00 0.00 0.00 96 1030.6
20220928082842 37 0.0 0.0 0.00 0.00 0.00 95 1030.3
20220928081850 38 0.0 0.0 0.00 0.00 0.00 95 1030.3
20220928080827 38 0.0 0.0 0.00 0.00 0.00 96 1030.3
20220928075832 38 0.0 0.0 0.00 0.00 0.00 95 1030.4
20220928074838 38 0.0 0.0 0.00 0.00 0.00 94 1030.3
20220928073844 38 0.0 0.0 0.00 0.00 0.00 93 1030.3
20220928072823 39 0.0 0.0 0.00 0.00 0.00 92 1030.3
20220928071830 39 0.0 0.0 0.00 0.00 0.00 92 1030.0
20220928070835 39 0.0 0.0 0.00 0.00 0.00 91 1030.0
20220928065941 40 0.0 0.0 0.00 0.00 0.00 87 1029.7
20220928064820 41 0.0 0.0 0.00 0.00 0.00 86 1029.7
20220928063857 41 0.0 0.0 0.00 0.00 0.00 85 1029.6
20220928062902 41 0.0 0.0 0.00 0.00 0.00 85 1029.5
20220928061838 41 0.0 0.0 0.00 0.00 0.00 89 1029.3
20220928060844 40 0.0 0.0 0.00 0.00 0.00 90 1029.3
20220928055823 40 0.0 0.0 0.00 0.00 0.00 90 1029.3